createdAt,value
2022-11-02T00:01:22.646Z,100.00
2022-11-02T00:03:49.146Z,100.00
2022-11-02T00:06:15.599Z,100.00
2022-11-02T00:08:42.164Z,100.00
2022-11-02T00:11:09.084Z,100.00
2022-11-02T00:13:35.553Z,100.00
2022-11-02T00:16:09.696Z,100.00
2022-11-02T00:18:37.668Z,100.00
2022-11-02T00:21:04.768Z,100.00
2022-11-02T00:23:32.174Z,100.00
2022-11-02T00:26:02.560Z,100.00
2022-11-02T00:28:30.286Z,100.00
2022-11-02T00:30:56.728Z,100.00
2022-11-02T00:33:23.286Z,100.00
2022-11-02T00:35:49.775Z,100.00
2022-11-02T00:38:16.712Z,100.00
2022-11-02T00:40:43.936Z,100.00
2022-11-02T00:43:10.906Z,100.00
2022-11-02T00:45:38.380Z,100.00
2022-11-02T00:48:05.878Z,100.00
2022-11-02T00:50:32.671Z,100.00
2022-11-02T00:52:59.651Z,100.00
2022-11-02T00:55:26.331Z,100.00
2022-11-02T00:57:56.278Z,100.00
2022-11-02T01:00:22.828Z,100.00
2022-11-02T01:02:49.397Z,100.00
2022-11-02T01:05:16.107Z,100.00
2022-11-02T01:07:42.599Z,100.00
2022-11-02T01:10:10.747Z,100.00
2022-11-02T01:12:38.730Z,100.00
2022-11-02T01:15:07.990Z,100.00
2022-11-02T01:17:34.642Z,100.00
2022-11-02T01:20:05.493Z,100.00
2022-11-02T01:22:32.472Z,100.00
2022-11-02T01:24:58.912Z,100.00
2022-11-02T01:27:26.261Z,100.00
2022-11-02T01:29:52.703Z,100.00
2022-11-02T01:32:19.141Z,100.00
2022-11-02T01:34:45.592Z,100.00
2022-11-02T01:37:12.063Z,100.00
2022-11-02T01:39:38.525Z,100.00
2022-11-02T01:42:17.074Z,100.00
2022-11-02T01:44:44.876Z,100.00
2022-11-02T01:47:21.527Z,100.00
2022-11-02T01:49:53.323Z,100.00
2022-11-02T01:52:24.508Z,100.00
2022-11-02T01:54:55.871Z,100.00
2022-11-02T01:57:22.810Z,100.00
2022-11-02T01:59:55.981Z,100.00
2022-11-02T02:02:24.625Z,100.00
2022-11-02T02:04:59.290Z,100.00
2022-11-02T02:07:26.968Z,100.00
2022-11-02T02:09:55.156Z,100.00
2022-11-02T02:12:23.915Z,100.00
2022-11-02T02:14:51.218Z,100.00
2022-11-02T02:17:31.629Z,100.00
2022-11-02T02:20:14.862Z,100.00
2022-11-02T02:23:13.448Z,100.00
2022-11-02T02:26:38.741Z,100.00
2022-11-02T02:29:13.985Z,100.00
2022-11-02T02:31:46.911Z,100.00
2022-11-02T02:34:19.758Z,100.00
2022-11-02T02:36:52.176Z,100.00
2022-11-02T02:39:36.217Z,100.00
2022-11-02T02:42:09.859Z,100.00
2022-11-02T02:44:37.210Z,100.00
2022-11-02T02:47:14.131Z,100.00
2022-11-02T02:49:50.223Z,100.00
2022-11-02T02:52:19.790Z,100.00
2022-11-02T02:54:49.822Z,100.00
2022-11-02T02:57:21.674Z,100.00
2022-11-02T02:59:49.148Z,100.00
2022-11-02T03:02:30.294Z,100.00
2022-11-02T03:04:56.940Z,100.00
2022-11-02T03:07:31.083Z,99.27
2022-11-02T03:10:20.761Z,97.87
2022-11-02T03:13:16.571Z,99.76
2022-11-02T03:15:54.677Z,98.56
2022-11-02T03:18:36.368Z,97.75
2022-11-02T03:21:30.174Z,97.99
2022-11-02T03:23:59.731Z,98.50
2022-11-02T03:26:45.757Z,97.48
2022-11-02T03:29:21.522Z,96.28
2022-11-02T03:31:57.892Z,98.31
2022-11-02T03:34:26.591Z,97.44
2022-11-02T03:37:19.510Z,97.83
2022-11-02T03:39:50.143Z,96.92
2022-11-02T03:42:21.274Z,95.88
2022-11-02T03:44:57.745Z,95.35
2022-11-02T03:47:26.124Z,94.54
2022-11-02T03:49:55.525Z,94.67
2022-11-02T03:52:28.000Z,93.54
2022-11-02T03:55:03.532Z,94.19
2022-11-02T03:57:40.523Z,94.06
2022-11-02T04:00:14.499Z,94.66
2022-11-02T04:02:45.638Z,93.70
2022-11-02T04:05:13.358Z,95.78
2022-11-02T04:08:03.731Z,96.49
2022-11-02T04:10:31.234Z,97.03
2022-11-02T04:13:16.447Z,96.40
2022-11-02T04:15:43.299Z,97.71
2022-11-02T04:18:29.377Z,96.59
2022-11-02T04:20:55.918Z,94.93
2022-11-02T04:23:40.965Z,95.98
2022-11-02T04:26:07.523Z,95.16
2022-11-02T04:28:43.915Z,96.10
2022-11-02T04:31:12.961Z,94.78
2022-11-02T04:33:41.304Z,94.70
2022-11-02T04:36:14.013Z,96.08
2022-11-02T04:38:41.217Z,96.97
2022-11-02T04:41:39.531Z,96.24
2022-11-02T04:44:11.836Z,95.51
2022-11-02T04:46:39.709Z,95.93
2022-11-02T04:49:09.172Z,95.09
2022-11-02T04:51:40.079Z,95.34
2022-11-02T04:54:07.872Z,94.80
2022-11-02T04:56:34.593Z,93.98
2022-11-02T04:59:01.918Z,94.09
2022-11-02T05:01:31.381Z,95.13
2022-11-02T05:04:00.251Z,94.75
2022-11-02T05:06:29.433Z,96.05
2022-11-02T05:08:56.159Z,96.73
2022-11-02T05:11:24.320Z,97.37
2022-11-02T05:13:51.613Z,95.26
2022-11-02T05:16:19.304Z,96.68
2022-11-02T05:18:49.155Z,96.93
2022-11-02T05:21:17.227Z,96.07
2022-11-02T05:23:43.701Z,96.07
2022-11-02T05:26:12.073Z,96.26
2022-11-02T05:28:42.415Z,95.50
2022-11-02T05:31:08.925Z,95.31
2022-11-02T05:33:36.729Z,94.59
2022-11-02T05:36:10.999Z,95.24
2022-11-02T05:41:12.261Z,94.74
2022-11-02T05:43:40.056Z,95.82
2022-11-02T05:46:09.060Z,95.97
2022-11-02T05:48:35.547Z,95.34
2022-11-02T05:51:03.836Z,96.02
2022-11-02T05:53:34.091Z,97.51
2022-11-02T05:56:01.954Z,95.89
2022-11-02T05:58:29.158Z,97.21
2022-11-02T06:01:00.091Z,95.79
2022-11-02T06:03:26.952Z,95.82
2022-11-02T06:05:58.135Z,95.96
2022-11-02T06:08:24.750Z,98.32
2022-11-02T06:10:51.229Z,97.24
2022-11-02T06:13:17.702Z,97.38
2022-11-02T06:15:44.108Z,100.00
2022-11-02T06:18:10.615Z,100.00
2022-11-02T06:20:37.111Z,99.49
2022-11-02T06:23:03.959Z,98.80
2022-11-02T06:25:30.707Z,98.91
2022-11-02T06:27:57.540Z,97.71
2022-11-02T06:30:28.150Z,98.16
2022-11-02T06:32:54.964Z,98.50
2022-11-02T06:35:22.421Z,99.20
2022-11-02T06:37:48.975Z,99.38
2022-11-02T06:40:15.905Z,99.28
2022-11-02T06:42:50.411Z,100.00
2022-11-02T06:45:24.134Z,100.00
2022-11-02T06:47:51.003Z,100.00
2022-11-02T06:50:17.655Z,100.00
2022-11-02T06:52:45.823Z,100.00
2022-11-02T06:55:14.074Z,100.00
2022-11-02T06:57:41.900Z,100.00
2022-11-02T07:00:16.554Z,100.00
2022-11-02T07:02:45.813Z,100.00
2022-11-02T07:05:12.858Z,100.00
2022-11-02T07:07:39.418Z,100.00
2022-11-02T07:10:09.033Z,100.00
2022-11-02T07:12:35.492Z,100.00
2022-11-02T07:15:01.931Z,100.00
2022-11-02T07:17:32.156Z,100.00
2022-11-02T07:19:59.009Z,100.00
2022-11-02T07:22:25.543Z,100.00
2022-11-02T07:24:52.167Z,99.04
2022-11-02T07:27:20.624Z,98.78
2022-11-02T07:29:47.340Z,98.76
2022-11-02T07:32:13.905Z,96.64
2022-11-02T07:34:40.453Z,96.82
2022-11-02T07:37:06.889Z,97.16
2022-11-02T07:39:33.321Z,95.58
2022-11-02T07:41:59.868Z,95.16
2022-11-02T07:44:26.397Z,95.09
2022-11-02T07:46:52.919Z,94.69
2022-11-02T07:49:21.679Z,91.52
2022-11-02T07:51:48.494Z,90.28
2022-11-02T07:54:14.982Z,88.10
2022-11-02T07:56:41.424Z,86.77
2022-11-02T07:59:10.454Z,85.93
2022-11-02T08:01:36.999Z,87.58
2022-11-02T08:04:03.586Z,84.81
2022-11-02T08:06:30.117Z,84.96
2022-11-02T08:08:57.288Z,83.31
2022-11-02T08:11:23.787Z,82.44
2022-11-02T08:13:50.262Z,85.62
2022-11-02T08:16:16.819Z,84.71
2022-11-02T08:18:43.344Z,83.49
2022-11-02T08:21:09.806Z,82.06
2022-11-02T08:23:36.235Z,82.71
2022-11-02T08:26:02.666Z,82.33
2022-11-02T08:28:32.280Z,82.63
2022-11-02T08:30:59.135Z,84.37
2022-11-02T08:33:25.659Z,83.25
2022-11-02T08:35:53.155Z,81.86
2022-11-02T08:38:22.540Z,81.33
2022-11-02T08:40:49.614Z,78.51
2022-11-02T08:43:16.382Z,78.62
2022-11-02T08:48:32.320Z,77.37
2022-11-02T08:50:59.111Z,77.64
2022-11-02T08:53:25.588Z,77.45
2022-11-02T08:55:52.068Z,77.01
2022-11-02T08:58:18.647Z,77.16
2022-11-02T09:00:48.700Z,78.13
2022-11-02T09:03:17.192Z,77.21
2022-11-02T09:05:46.967Z,76.47
2022-11-02T09:08:18.876Z,77.08
2022-11-02T09:10:49.140Z,77.07
2022-11-02T09:13:18.286Z,75.37
2022-11-02T09:15:44.724Z,72.50
2022-11-02T09:18:11.240Z,71.80
2022-11-02T09:20:37.921Z,68.88
2022-11-02T09:23:04.532Z,66.15
2022-11-02T09:25:31.106Z,66.78
2022-11-02T09:27:58.408Z,65.60
2022-11-02T09:30:26.278Z,64.95
2022-11-02T09:32:57.794Z,63.63
2022-11-02T09:35:26.258Z,64.96
2022-11-02T09:37:52.803Z,64.47
2022-11-02T09:40:37.857Z,65.85
2022-11-02T09:43:13.422Z,65.84
2022-11-02T09:45:55.193Z,64.20
2022-11-02T09:48:44.153Z,61.58
2022-11-02T09:51:25.481Z,62.18
2022-11-02T09:54:06.820Z,61.80
2022-11-02T09:56:35.204Z,58.30
2022-11-02T09:59:13.474Z,56.93
2022-11-02T10:01:58.288Z,58.43
2022-11-02T10:04:46.735Z,61.26
2022-11-02T10:07:50.807Z,63.90
2022-11-02T10:10:27.505Z,57.70
2022-11-02T10:13:10.434Z,61.76
2022-11-02T10:15:47.754Z,60.92
2022-11-02T10:18:20.593Z,55.45
2022-11-02T10:20:51.434Z,53.04
2022-11-02T10:23:33.470Z,47.08
2022-11-02T10:26:02.062Z,49.45
2022-11-02T10:28:34.916Z,45.97
2022-11-02T10:31:02.745Z,46.63
2022-11-02T10:33:30.860Z,46.68
2022-11-02T10:36:19.483Z,45.98
2022-11-02T10:39:01.216Z,47.04
2022-11-02T10:41:58.419Z,44.71
2022-11-02T10:44:46.225Z,46.79
2022-11-02T10:47:19.956Z,46.54
2022-11-02T10:50:14.449Z,45.87
2022-11-02T10:52:44.692Z,46.02
2022-11-02T10:55:37.082Z,48.77
2022-11-02T10:58:06.606Z,47.07
2022-11-02T11:00:37.340Z,45.43
2022-11-02T11:03:09.451Z,45.64
2022-11-02T11:05:50.109Z,44.06
2022-11-02T11:08:28.444Z,43.38
2022-11-02T11:10:54.993Z,43.48
2022-11-02T11:16:14.750Z,43.58
2022-11-02T11:21:40.321Z,40.53
2022-11-02T11:24:30.305Z,40.60
2022-11-02T11:27:12.440Z,40.77
2022-11-02T11:29:41.459Z,39.87
2022-11-02T11:32:22.029Z,40.52
2022-11-02T11:34:59.887Z,43.43
2022-11-02T11:37:26.752Z,43.18
2022-11-02T11:39:58.410Z,43.54
2022-11-02T11:42:28.082Z,45.10
2022-11-02T11:44:59.279Z,45.73
2022-11-02T11:47:28.440Z,46.54
2022-11-02T11:50:13.952Z,47.58
2022-11-02T11:52:43.260Z,46.90
2022-11-02T11:55:31.634Z,47.68
2022-11-02T11:58:27.004Z,50.02
2022-11-02T12:01:16.131Z,51.40
2022-11-02T12:04:03.106Z,49.48
2022-11-02T12:06:43.211Z,51.30
2022-11-02T12:09:20.776Z,52.21
2022-11-02T12:12:10.956Z,51.16
2022-11-02T12:15:13.012Z,51.30
2022-11-02T12:18:01.144Z,53.73
2022-11-02T12:20:47.444Z,53.55
2022-11-02T12:23:46.021Z,52.34
2022-11-02T12:26:26.697Z,52.90
2022-11-02T12:29:17.756Z,53.54
2022-11-02T12:31:50.769Z,54.73
2022-11-02T12:34:22.884Z,53.93
2022-11-02T12:37:27.400Z,54.49
2022-11-02T12:40:13.359Z,56.09
2022-11-02T12:43:10.184Z,56.54
2022-11-02T12:46:13.511Z,56.40
2022-11-02T12:49:07.136Z,55.58
2022-11-02T12:51:40.745Z,55.25
2022-11-02T12:54:11.939Z,54.75
2022-11-02T12:56:49.895Z,55.74
2022-11-02T12:59:22.031Z,53.39
2022-11-02T13:01:53.377Z,52.54
2022-11-02T13:04:36.865Z,52.47
2022-11-02T13:07:11.645Z,52.70
2022-11-02T13:09:54.508Z,53.29
2022-11-02T13:12:24.636Z,54.08
2022-11-02T13:14:58.272Z,53.39
2022-11-02T13:17:40.760Z,53.01
2022-11-02T13:20:18.797Z,53.78
2022-11-02T13:22:51.309Z,54.18
2022-11-02T13:25:22.169Z,54.01
2022-11-02T13:27:55.158Z,55.44
2022-11-02T13:30:21.681Z,53.82
2022-11-02T13:33:19.686Z,54.67
2022-11-02T13:35:47.191Z,56.15
2022-11-02T13:38:37.809Z,57.11
2022-11-02T13:41:24.832Z,56.84
2022-11-02T13:44:11.391Z,58.19
2022-11-02T13:46:58.673Z,58.88
2022-11-02T13:49:30.672Z,59.34
2022-11-02T13:52:03.438Z,59.29
2022-11-02T13:54:46.099Z,60.97
2022-11-02T13:57:35.691Z,60.10
2022-11-02T14:00:04.830Z,59.94
2022-11-02T14:02:37.407Z,60.17
2022-11-02T14:05:04.347Z,61.25
2022-11-02T14:07:35.509Z,62.38
2022-11-02T14:10:09.847Z,60.50
2022-11-02T14:12:45.300Z,59.69
2022-11-02T14:15:14.645Z,60.20
2022-11-02T14:17:53.361Z,61.14
2022-11-02T14:20:36.034Z,58.85
2022-11-02T14:23:11.725Z,57.53
2022-11-02T14:25:49.214Z,58.34
2022-11-02T14:28:25.672Z,59.23
2022-11-02T14:31:04.217Z,59.33
2022-11-02T14:33:38.639Z,59.77
2022-11-02T14:36:17.087Z,59.50
2022-11-02T14:38:58.187Z,57.60
2022-11-02T14:41:49.948Z,58.13
2022-11-02T14:44:37.625Z,58.13
2022-11-02T14:47:16.408Z,57.99
2022-11-02T14:49:50.816Z,57.77
2022-11-02T14:52:26.597Z,58.21
2022-11-02T14:54:59.559Z,58.06
2022-11-02T14:57:52.279Z,57.52
2022-11-02T15:00:27.700Z,57.63
2022-11-02T15:02:54.436Z,56.05
2022-11-02T15:05:23.624Z,64.40
2022-11-02T15:07:54.635Z,62.50
2022-11-02T15:10:21.025Z,60.91
2022-11-02T15:12:48.568Z,56.19
2022-11-02T15:15:36.571Z,60.11
2022-11-02T15:18:30.909Z,57.34
2022-11-02T15:21:10.041Z,58.12
2022-11-02T15:24:01.485Z,58.61
2022-11-02T15:26:40.855Z,59.57
2022-11-02T15:29:36.898Z,60.11
2022-11-02T15:32:06.476Z,61.21
2022-11-02T15:34:47.470Z,60.97
2022-11-02T15:37:20.155Z,61.98
2022-11-02T15:39:55.306Z,63.47
2022-11-02T15:42:41.029Z,63.37
2022-11-02T15:45:49.387Z,66.81
2022-11-02T15:48:42.852Z,66.43
2022-11-02T15:51:37.099Z,65.49
2022-11-02T15:54:09.597Z,71.35
2022-11-02T15:56:49.067Z,67.22
2022-11-02T15:59:18.515Z,67.00
2022-11-02T16:01:45.359Z,68.96
2022-11-02T16:04:20.254Z,72.89
2022-11-02T16:06:47.149Z,76.25
2022-11-02T16:09:40.638Z,77.81
2022-11-02T16:12:19.200Z,79.55
2022-11-02T16:14:51.257Z,81.26
2022-11-02T16:17:28.527Z,83.75
2022-11-02T16:20:22.041Z,82.94
2022-11-02T16:22:51.249Z,84.58
2022-11-02T16:25:25.829Z,85.38
2022-11-02T16:27:52.479Z,85.94
2022-11-02T16:30:21.259Z,88.34
2022-11-02T16:32:53.200Z,88.45
2022-11-02T16:35:21.266Z,88.64
2022-11-02T16:37:49.666Z,89.58
2022-11-02T16:40:18.528Z,90.39
2022-11-02T16:42:46.963Z,90.98
2022-11-02T16:45:43.862Z,92.10
2022-11-02T16:48:32.940Z,93.33
2022-11-02T16:51:02.200Z,96.20
2022-11-02T16:53:31.489Z,95.68
2022-11-02T16:56:13.489Z,96.46
2022-11-02T16:58:47.317Z,96.90
2022-11-02T17:01:22.723Z,97.02
2022-11-02T17:03:50.116Z,97.84
2022-11-02T17:06:18.610Z,98.54
2022-11-02T17:08:52.220Z,99.81
2022-11-02T17:11:19.033Z,99.06
2022-11-02T17:13:52.520Z,100.00
2022-11-02T17:16:19.605Z,100.00
2022-11-02T17:18:46.400Z,100.00
2022-11-02T17:21:12.990Z,100.00
2022-11-02T17:23:42.547Z,100.00
2022-11-02T17:26:31.736Z,100.00
2022-11-02T17:29:24.015Z,100.00
2022-11-02T17:32:01.030Z,100.00
2022-11-02T17:34:28.239Z,100.00
2022-11-02T17:36:55.112Z,99.52
2022-11-02T17:39:21.791Z,99.42
2022-11-02T17:42:15.014Z,99.00
2022-11-02T17:44:42.129Z,99.14
2022-11-02T17:47:13.510Z,100.00
2022-11-02T17:49:40.044Z,100.00
2022-11-02T17:52:07.034Z,100.00
2022-11-02T17:54:33.518Z,100.00
2022-11-02T17:57:01.544Z,100.00
2022-11-02T17:59:28.079Z,100.00
2022-11-02T18:01:54.624Z,100.00
2022-11-02T18:04:21.164Z,100.00
2022-11-02T18:06:47.596Z,100.00
2022-11-02T18:09:14.604Z,100.00
2022-11-02T18:11:41.655Z,100.00
2022-11-02T18:14:13.967Z,100.00
2022-11-02T18:16:40.411Z,100.00
2022-11-02T18:19:06.890Z,100.00
2022-11-02T18:21:33.777Z,100.00
2022-11-02T18:24:00.238Z,100.00
2022-11-02T18:26:26.687Z,100.00
2022-11-02T18:28:53.140Z,100.00
2022-11-02T18:31:19.664Z,100.00
2022-11-02T18:33:46.127Z,100.00
2022-11-02T18:36:12.609Z,100.00
2022-11-02T18:38:39.139Z,100.00
2022-11-02T18:41:27.022Z,100.00
2022-11-02T18:43:59.087Z,100.00
2022-11-02T18:46:30.672Z,100.00
2022-11-02T18:48:57.975Z,100.00
2022-11-02T18:51:24.848Z,100.00
2022-11-02T18:53:56.564Z,100.00
2022-11-02T18:56:23.760Z,100.00
2022-11-02T18:58:51.822Z,100.00
2022-11-02T19:01:19.852Z,100.00
2022-11-02T19:03:50.871Z,100.00
2022-11-02T19:06:36.770Z,100.00
2022-11-02T19:09:19.067Z,100.00
2022-11-02T19:11:56.557Z,100.00
2022-11-02T19:14:23.993Z,100.00
2022-11-02T19:16:50.469Z,100.00
2022-11-02T19:19:17.068Z,100.00
2022-11-02T19:21:43.580Z,100.00
2022-11-02T19:24:10.144Z,100.00
2022-11-02T19:26:36.944Z,100.00
2022-11-02T19:29:06.365Z,100.00
2022-11-02T19:31:34.284Z,100.00
2022-11-02T19:34:00.955Z,100.00
2022-11-02T19:36:27.768Z,100.00
2022-11-02T19:38:54.219Z,100.00
2022-11-02T19:41:21.690Z,100.00
2022-11-02T19:43:48.243Z,100.00
2022-11-02T19:46:17.147Z,100.00
2022-11-02T19:48:43.654Z,100.00
2022-11-02T19:51:19.246Z,100.00
2022-11-02T19:53:49.553Z,100.00
2022-11-02T19:56:16.727Z,100.00
2022-11-02T19:58:45.295Z,100.00
2022-11-02T20:01:36.435Z,100.00
2022-11-02T20:04:04.497Z,100.00
2022-11-02T20:06:39.608Z,100.00
2022-11-02T20:09:12.920Z,100.00
2022-11-02T20:11:44.200Z,100.00
2022-11-02T20:14:12.287Z,100.00
2022-11-02T20:16:39.462Z,100.00
2022-11-02T20:19:06.589Z,100.00
2022-11-02T20:21:36.841Z,100.00
2022-11-02T20:24:08.184Z,100.00
2022-11-02T20:26:36.450Z,100.00
2022-11-02T20:29:05.246Z,100.00
2022-11-02T20:31:36.940Z,100.00
2022-11-02T20:34:05.234Z,100.00
2022-11-02T20:36:31.917Z,100.00
2022-11-02T20:38:58.796Z,100.00
2022-11-02T20:41:26.080Z,100.00
2022-11-02T20:43:55.083Z,100.00
2022-11-02T20:46:37.039Z,100.00
2022-11-02T20:49:14.334Z,100.00
2022-11-02T20:51:51.192Z,100.00
2022-11-02T20:54:19.480Z,100.00
2022-11-02T20:56:46.600Z,100.00
2022-11-02T20:59:13.088Z,100.00
2022-11-02T21:01:39.783Z,100.00
2022-11-02T21:04:06.701Z,100.00
2022-11-02T21:06:33.279Z,100.00
2022-11-02T21:09:00.463Z,100.00
2022-11-02T21:11:45.725Z,100.00
2022-11-02T21:14:12.175Z,100.00
2022-11-02T21:16:38.715Z,100.00
2022-11-02T21:19:06.715Z,100.00
2022-11-02T21:21:33.277Z,100.00
2022-11-02T21:23:59.795Z,100.00
2022-11-02T21:26:26.301Z,100.00
2022-11-02T21:28:52.778Z,100.00
2022-11-02T21:31:21.405Z,100.00
2022-11-02T21:33:49.525Z,100.00
2022-11-02T21:36:17.589Z,100.00
2022-11-02T21:38:45.116Z,100.00
2022-11-02T21:41:17.971Z,100.00
2022-11-02T21:43:44.426Z,100.00
2022-11-02T21:46:10.960Z,100.00
2022-11-02T21:48:38.193Z,100.00
2022-11-02T21:51:15.426Z,100.00
2022-11-02T21:53:43.971Z,100.00
2022-11-02T21:56:11.905Z,100.00
2022-11-02T21:58:44.624Z,100.00
2022-11-02T22:01:40.686Z,100.00
2022-11-02T22:04:08.576Z,100.00
2022-11-02T22:06:37.398Z,100.00
2022-11-02T22:09:07.179Z,100.00
2022-11-02T22:11:33.714Z,100.00
2022-11-02T22:14:01.214Z,100.00
2022-11-02T22:16:34.769Z,100.00
2022-11-02T22:19:04.200Z,100.00
2022-11-02T22:21:34.464Z,100.00
2022-11-02T22:24:01.481Z,100.00
2022-11-02T22:26:30.261Z,100.00
2022-11-02T22:28:57.966Z,100.00
2022-11-02T22:31:27.459Z,100.00
2022-11-02T22:33:56.611Z,100.00
2022-11-02T22:36:25.485Z,100.00
2022-11-02T22:38:55.956Z,100.00
2022-11-02T22:41:24.222Z,100.00
2022-11-02T22:43:53.819Z,100.00
2022-11-02T22:46:24.671Z,100.00
2022-11-02T22:48:52.235Z,100.00
2022-11-02T22:51:20.938Z,100.00
2022-11-02T22:53:48.282Z,100.00
2022-11-02T22:56:16.088Z,100.00
2022-11-02T22:58:44.422Z,100.00
2022-11-02T23:01:16.498Z,100.00
2022-11-02T23:03:43.620Z,100.00
2022-11-02T23:06:10.726Z,100.00
2022-11-02T23:08:39.552Z,100.00
2022-11-02T23:11:23.206Z,100.00
2022-11-02T23:14:07.787Z,100.00
2022-11-02T23:16:37.003Z,100.00
2022-11-02T23:19:30.993Z,100.00
2022-11-02T23:22:25.801Z,100.00
2022-11-02T23:25:12.873Z,100.00
2022-11-02T23:28:06.624Z,100.00
2022-11-02T23:30:53.944Z,100.00
2022-11-02T23:33:22.190Z,100.00
2022-11-02T23:36:07.867Z,100.00
2022-11-02T23:38:53.109Z,100.00
2022-11-02T23:41:19.911Z,100.00
2022-11-02T23:43:47.186Z,100.00
2022-11-02T23:46:14.228Z,100.00
2022-11-02T23:48:47.055Z,100.00
2022-11-02T23:51:34.786Z,100.00
2022-11-02T23:54:19.674Z,100.00
2022-11-02T23:56:46.272Z,100.00
2022-11-02T23:59:17.634Z,100.00
